sensor_id;sensor_type;location;lat;lon;timestamp;P1;durP1;ratioP1;P2;durP2;ratioP2
39970;SDS011;35425;51.142;17.178;2023-04-07T00:01:14;4.85;;;3.40;;
39970;SDS011;35425;51.142;17.178;2023-04-07T00:03:41;4.15;;;2.88;;
39970;SDS011;35425;51.142;17.178;2023-04-07T00:06:09;4.63;;;3.65;;
39970;SDS011;35425;51.142;17.178;2023-04-07T00:08:36;4.05;;;3.20;;
39970;SDS011;35425;51.142;17.178;2023-04-07T00:11:03;3.75;;;3.10;;
39970;SDS011;35425;51.142;17.178;2023-04-07T00:13:29;3.88;;;3.00;;
39970;SDS011;35425;51.142;17.178;2023-04-07T00:15:56;4.38;;;3.55;;
39970;SDS011;35425;51.142;17.178;2023-04-07T00:18:23;4.05;;;2.90;;
39970;SDS011;35425;51.142;17.178;2023-04-07T00:20:49;4.22;;;2.97;;
39970;SDS011;35425;51.142;17.178;2023-04-07T00:23:16;2.80;;;2.50;;
39970;SDS011;35425;51.142;17.178;2023-04-07T00:25:47;4.35;;;3.50;;
39970;SDS011;35425;51.142;17.178;2023-04-07T00:28:14;2.67;;;2.47;;
39970;SDS011;35425;51.142;17.178;2023-04-07T00:30:41;3.33;;;2.60;;
39970;SDS011;35425;51.142;17.178;2023-04-07T00:33:08;4.10;;;3.10;;
39970;SDS011;35425;51.142;17.178;2023-04-07T00:35:35;3.53;;;2.70;;
39970;SDS011;35425;51.142;17.178;2023-04-07T00:38:02;4.88;;;3.00;;
39970;SDS011;35425;51.142;17.178;2023-04-07T00:40:34;3.65;;;2.90;;
39970;SDS011;35425;51.142;17.178;2023-04-07T00:43:01;3.42;;;2.90;;
39970;SDS011;35425;51.142;17.178;2023-04-07T00:45:28;2.90;;;2.40;;
39970;SDS011;35425;51.142;17.178;2023-04-07T00:47:55;3.38;;;2.65;;
39970;SDS011;35425;51.142;17.178;2023-04-07T00:50:22;3.75;;;2.67;;
39970;SDS011;35425;51.142;17.178;2023-04-07T00:52:49;2.95;;;2.65;;
39970;SDS011;35425;51.142;17.178;2023-04-07T00:55:19;4.03;;;2.67;;
39970;SDS011;35425;51.142;17.178;2023-04-07T00:57:46;3.20;;;2.70;;
39970;SDS011;35425;51.142;17.178;2023-04-07T01:00:13;4.05;;;2.65;;
39970;SDS011;35425;51.142;17.178;2023-04-07T01:02:47;3.08;;;2.40;;
39970;SDS011;35425;51.142;17.178;2023-04-07T01:05:15;3.20;;;2.40;;
39970;SDS011;35425;51.142;17.178;2023-04-07T01:10:13;3.22;;;2.47;;
39970;SDS011;35425;51.142;17.178;2023-04-07T01:12:46;3.80;;;2.38;;
39970;SDS011;35425;51.142;17.178;2023-04-07T01:15:17;3.08;;;2.30;;
39970;SDS011;35425;51.142;17.178;2023-04-07T01:17:52;2.72;;;2.42;;
39970;SDS011;35425;51.142;17.178;2023-04-07T01:20:21;3.05;;;2.53;;
39970;SDS011;35425;51.142;17.178;2023-04-07T01:22:52;2.80;;;2.45;;
39970;SDS011;35425;51.142;17.178;2023-04-07T01:25:25;3.53;;;2.60;;
39970;SDS011;35425;51.142;17.178;2023-04-07T01:28:09;2.90;;;2.40;;
39970;SDS011;35425;51.142;17.178;2023-04-07T01:30:39;2.65;;;2.25;;
39970;SDS011;35425;51.142;17.178;2023-04-07T01:33:09;3.78;;;2.38;;
39970;SDS011;35425;51.142;17.178;2023-04-07T01:35:37;2.97;;;2.50;;
39970;SDS011;35425;51.142;17.178;2023-04-07T01:38:04;2.40;;;2.17;;
39970;SDS011;35425;51.142;17.178;2023-04-07T01:40:32;2.40;;;2.20;;
39970;SDS011;35425;51.142;17.178;2023-04-07T01:42:59;3.38;;;2.53;;
39970;SDS011;35425;51.142;17.178;2023-04-07T01:45:26;2.65;;;2.25;;
39970;SDS011;35425;51.142;17.178;2023-04-07T01:47:54;3.00;;;2.33;;
39970;SDS011;35425;51.142;17.178;2023-04-07T01:50:21;2.58;;;2.20;;
39970;SDS011;35425;51.142;17.178;2023-04-07T01:52:48;3.20;;;2.30;;
39970;SDS011;35425;51.142;17.178;2023-04-07T01:55:15;3.00;;;2.40;;
39970;SDS011;35425;51.142;17.178;2023-04-07T01:57:42;2.72;;;2.00;;
39970;SDS011;35425;51.142;17.178;2023-04-07T02:00:09;2.60;;;2.25;;
39970;SDS011;35425;51.142;17.178;2023-04-07T02:02:37;3.35;;;2.63;;
39970;SDS011;35425;51.142;17.178;2023-04-07T02:05:06;2.88;;;1.90;;
39970;SDS011;35425;51.142;17.178;2023-04-07T02:07:54;2.65;;;2.20;;
39970;SDS011;35425;51.142;17.178;2023-04-07T02:10:24;2.85;;;2.20;;
39970;SDS011;35425;51.142;17.178;2023-04-07T02:12:52;3.38;;;2.67;;
39970;SDS011;35425;51.142;17.178;2023-04-07T02:15:20;2.63;;;2.20;;
39970;SDS011;35425;51.142;17.178;2023-04-07T02:17:48;3.30;;;2.13;;
39970;SDS011;35425;51.142;17.178;2023-04-07T02:20:17;2.58;;;2.17;;
39970;SDS011;35425;51.142;17.178;2023-04-07T02:22:45;2.22;;;2.03;;
39970;SDS011;35425;51.142;17.178;2023-04-07T02:25:25;1.80;;;1.63;;
39970;SDS011;35425;51.142;17.178;2023-04-07T02:27:53;3.28;;;2.00;;
39970;SDS011;35425;51.142;17.178;2023-04-07T02:30:20;2.60;;;2.33;;
39970;SDS011;35425;51.142;17.178;2023-04-07T02:32:47;2.97;;;2.10;;
39970;SDS011;35425;51.142;17.178;2023-04-07T02:35:14;3.00;;;2.20;;
39970;SDS011;35425;51.142;17.178;2023-04-07T02:37:43;2.65;;;2.08;;
39970;SDS011;35425;51.142;17.178;2023-04-07T02:40:09;2.30;;;2.10;;
39970;SDS011;35425;51.142;17.178;2023-04-07T02:42:36;2.53;;;2.22;;
39970;SDS011;35425;51.142;17.178;2023-04-07T02:45:04;2.92;;;2.35;;
39970;SDS011;35425;51.142;17.178;2023-04-07T02:47:32;2.70;;;2.40;;
39970;SDS011;35425;51.142;17.178;2023-04-07T02:49:59;2.20;;;1.92;;
39970;SDS011;35425;51.142;17.178;2023-04-07T02:52:26;1.95;;;1.75;;
39970;SDS011;35425;51.142;17.178;2023-04-07T02:54:53;2.20;;;2.00;;
39970;SDS011;35425;51.142;17.178;2023-04-07T02:57:20;2.08;;;1.77;;
39970;SDS011;35425;51.142;17.178;2023-04-07T02:59:47;3.10;;;1.90;;
39970;SDS011;35425;51.142;17.178;2023-04-07T03:02:14;2.10;;;1.90;;
39970;SDS011;35425;51.142;17.178;2023-04-07T03:04:41;2.05;;;1.77;;
39970;SDS011;35425;51.142;17.178;2023-04-07T03:07:08;1.77;;;1.58;;
39970;SDS011;35425;51.142;17.178;2023-04-07T03:09:35;2.15;;;1.83;;
39970;SDS011;35425;51.142;17.178;2023-04-07T03:12:03;2.65;;;2.08;;
39970;SDS011;35425;51.142;17.178;2023-04-07T03:14:29;2.38;;;1.70;;
39970;SDS011;35425;51.142;17.178;2023-04-07T03:16:57;2.10;;;1.88;;
39970;SDS011;35425;51.142;17.178;2023-04-07T03:19:24;2.95;;;1.70;;
39970;SDS011;35425;51.142;17.178;2023-04-07T03:21:51;2.10;;;1.90;;
39970;SDS011;35425;51.142;17.178;2023-04-07T03:24:18;1.98;;;1.73;;
39970;SDS011;35425;51.142;17.178;2023-04-07T03:26:45;2.38;;;1.63;;
39970;SDS011;35425;51.142;17.178;2023-04-07T03:29:12;2.10;;;1.90;;
39970;SDS011;35425;51.142;17.178;2023-04-07T03:31:39;2.13;;;1.45;;
39970;SDS011;35425;51.142;17.178;2023-04-07T03:34:06;2.53;;;1.58;;
39970;SDS011;35425;51.142;17.178;2023-04-07T03:36:34;2.20;;;1.80;;
39970;SDS011;35425;51.142;17.178;2023-04-07T03:39:00;1.80;;;1.50;;
39970;SDS011;35425;51.142;17.178;2023-04-07T03:41:27;1.63;;;1.50;;
39970;SDS011;35425;51.142;17.178;2023-04-07T03:43:54;1.58;;;1.45;;
39970;SDS011;35425;51.142;17.178;2023-04-07T03:46:21;1.75;;;1.50;;
39970;SDS011;35425;51.142;17.178;2023-04-07T03:48:48;1.70;;;1.60;;
39970;SDS011;35425;51.142;17.178;2023-04-07T03:51:14;1.80;;;1.60;;
39970;SDS011;35425;51.142;17.178;2023-04-07T03:53:41;1.95;;;1.50;;
39970;SDS011;35425;51.142;17.178;2023-04-07T03:56:08;1.98;;;1.60;;
39970;SDS011;35425;51.142;17.178;2023-04-07T03:58:35;1.70;;;1.45;;
39970;SDS011;35425;51.142;17.178;2023-04-07T04:01:02;1.65;;;1.55;;
39970;SDS011;35425;51.142;17.178;2023-04-07T04:03:29;1.60;;;1.38;;
39970;SDS011;35425;51.142;17.178;2023-04-07T04:05:58;1.48;;;1.38;;
39970;SDS011;35425;51.142;17.178;2023-04-07T04:08:25;1.85;;;1.65;;
39970;SDS011;35425;51.142;17.178;2023-04-07T04:10:52;1.83;;;1.60;;
39970;SDS011;35425;51.142;17.178;2023-04-07T04:13:19;1.90;;;1.63;;
39970;SDS011;35425;51.142;17.178;2023-04-07T04:15:46;1.73;;;1.50;;
39970;SDS011;35425;51.142;17.178;2023-04-07T04:18:13;2.45;;;1.75;;
39970;SDS011;35425;51.142;17.178;2023-04-07T04:20:40;1.70;;;1.60;;
39970;SDS011;35425;51.142;17.178;2023-04-07T04:23:09;1.80;;;1.70;;
39970;SDS011;35425;51.142;17.178;2023-04-07T04:25:36;1.65;;;1.55;;
39970;SDS011;35425;51.142;17.178;2023-04-07T04:28:05;1.70;;;1.60;;
39970;SDS011;35425;51.142;17.178;2023-04-07T04:30:32;2.10;;;1.50;;
39970;SDS011;35425;51.142;17.178;2023-04-07T04:32:59;1.88;;;1.73;;
39970;SDS011;35425;51.142;17.178;2023-04-07T04:35:26;2.35;;;1.80;;
39970;SDS011;35425;51.142;17.178;2023-04-07T04:37:53;2.47;;;1.88;;
39970;SDS011;35425;51.142;17.178;2023-04-07T04:40:20;2.00;;;1.52;;
39970;SDS011;35425;51.142;17.178;2023-04-07T04:42:47;3.38;;;1.95;;
39970;SDS011;35425;51.142;17.178;2023-04-07T04:45:13;2.00;;;1.63;;
39970;SDS011;35425;51.142;17.178;2023-04-07T04:47:40;2.47;;;1.77;;
39970;SDS011;35425;51.142;17.178;2023-04-07T04:50:09;2.08;;;1.75;;
39970;SDS011;35425;51.142;17.178;2023-04-07T04:52:36;2.35;;;1.77;;
39970;SDS011;35425;51.142;17.178;2023-04-07T04:55:05;2.25;;;1.88;;
39970;SDS011;35425;51.142;17.178;2023-04-07T04:57:32;1.70;;;1.60;;
39970;SDS011;35425;51.142;17.178;2023-04-07T05:00:01;2.13;;;1.67;;
39970;SDS011;35425;51.142;17.178;2023-04-07T05:02:29;2.03;;;1.77;;
39970;SDS011;35425;51.142;17.178;2023-04-07T05:04:56;2.17;;;1.98;;
39970;SDS011;35425;51.142;17.178;2023-04-07T05:07:24;1.67;;;1.50;;
39970;SDS011;35425;51.142;17.178;2023-04-07T05:09:50;2.03;;;1.50;;
39970;SDS011;35425;51.142;17.178;2023-04-07T05:12:17;2.05;;;1.80;;
39970;SDS011;35425;51.142;17.178;2023-04-07T05:14:44;1.92;;;1.60;;
39970;SDS011;35425;51.142;17.178;2023-04-07T05:17:11;2.25;;;1.60;;
39970;SDS011;35425;51.142;17.178;2023-04-07T05:19:38;1.83;;;1.60;;
39970;SDS011;35425;51.142;17.178;2023-04-07T05:22:05;1.90;;;1.60;;
39970;SDS011;35425;51.142;17.178;2023-04-07T05:24:31;1.70;;;1.60;;
39970;SDS011;35425;51.142;17.178;2023-04-07T05:26:58;2.60;;;1.75;;
39970;SDS011;35425;51.142;17.178;2023-04-07T05:29:24;2.80;;;1.98;;
39970;SDS011;35425;51.142;17.178;2023-04-07T05:31:51;1.80;;;1.65;;
39970;SDS011;35425;51.142;17.178;2023-04-07T05:34:18;2.28;;;1.80;;
39970;SDS011;35425;51.142;17.178;2023-04-07T05:36:44;2.00;;;1.80;;
39970;SDS011;35425;51.142;17.178;2023-04-07T05:39:11;2.47;;;2.05;;
39970;SDS011;35425;51.142;17.178;2023-04-07T05:41:38;2.17;;;1.90;;
39970;SDS011;35425;51.142;17.178;2023-04-07T05:44:05;1.75;;;1.65;;
39970;SDS011;35425;51.142;17.178;2023-04-07T05:46:32;2.00;;;1.80;;
39970;SDS011;35425;51.142;17.178;2023-04-07T05:48:58;2.80;;;2.10;;
39970;SDS011;35425;51.142;17.178;2023-04-07T05:51:38;1.98;;;1.88;;
39970;SDS011;35425;51.142;17.178;2023-04-07T05:54:05;2.17;;;1.98;;
39970;SDS011;35425;51.142;17.178;2023-04-07T05:56:32;1.95;;;1.85;;
39970;SDS011;35425;51.142;17.178;2023-04-07T05:58:59;2.28;;;2.08;;
39970;SDS011;35425;51.142;17.178;2023-04-07T06:01:27;2.38;;;2.17;;
39970;SDS011;35425;51.142;17.178;2023-04-07T06:03:54;1.73;;;1.63;;
39970;SDS011;35425;51.142;17.178;2023-04-07T06:06:22;3.00;;;2.25;;
39970;SDS011;35425;51.142;17.178;2023-04-07T06:08:51;2.10;;;1.90;;
39970;SDS011;35425;51.142;17.178;2023-04-07T06:11:18;2.30;;;2.10;;
39970;SDS011;35425;51.142;17.178;2023-04-07T06:13:45;2.60;;;2.00;;
39970;SDS011;35425;51.142;17.178;2023-04-07T06:16:12;2.22;;;1.80;;
39970;SDS011;35425;51.142;17.178;2023-04-07T06:18:42;2.45;;;2.00;;
39970;SDS011;35425;51.142;17.178;2023-04-07T06:21:09;2.00;;;1.80;;
39970;SDS011;35425;51.142;17.178;2023-04-07T06:23:36;2.15;;;1.88;;
39970;SDS011;35425;51.142;17.178;2023-04-07T06:26:08;2.50;;;1.92;;
39970;SDS011;35425;51.142;17.178;2023-04-07T06:28:36;2.20;;;2.00;;
39970;SDS011;35425;51.142;17.178;2023-04-07T06:31:02;2.33;;;1.90;;
39970;SDS011;35425;51.142;17.178;2023-04-07T06:33:29;1.80;;;1.67;;
39970;SDS011;35425;51.142;17.178;2023-04-07T06:36:00;1.70;;;1.42;;
39970;SDS011;35425;51.142;17.178;2023-04-07T06:38:26;1.73;;;1.48;;
39970;SDS011;35425;51.142;17.178;2023-04-07T06:40:53;1.52;;;1.42;;
39970;SDS011;35425;51.142;17.178;2023-04-07T06:43:20;1.85;;;1.65;;
39970;SDS011;35425;51.142;17.178;2023-04-07T06:45:47;2.25;;;1.48;;
39970;SDS011;35425;51.142;17.178;2023-04-07T06:48:14;1.88;;;1.67;;
39970;SDS011;35425;51.142;17.178;2023-04-07T06:50:40;1.67;;;1.50;;
39970;SDS011;35425;51.142;17.178;2023-04-07T06:53:07;2.33;;;1.75;;
39970;SDS011;35425;51.142;17.178;2023-04-07T06:55:34;1.58;;;1.35;;
39970;SDS011;35425;51.142;17.178;2023-04-07T06:58:01;2.15;;;1.60;;
39970;SDS011;35425;51.142;17.178;2023-04-07T07:00:27;2.08;;;1.88;;
39970;SDS011;35425;51.142;17.178;2023-04-07T07:02:56;2.15;;;1.67;;
39970;SDS011;35425;51.142;17.178;2023-04-07T07:05:23;1.98;;;1.70;;
39970;SDS011;35425;51.142;17.178;2023-04-07T07:07:50;2.35;;;1.50;;
39970;SDS011;35425;51.142;17.178;2023-04-07T07:10:17;2.13;;;1.80;;
39970;SDS011;35425;51.142;17.178;2023-04-07T07:12:46;1.67;;;1.58;;
39970;SDS011;35425;51.142;17.178;2023-04-07T07:15:13;1.85;;;1.63;;
39970;SDS011;35425;51.142;17.178;2023-04-07T07:17:39;1.92;;;1.70;;
39970;SDS011;35425;51.142;17.178;2023-04-07T07:20:07;1.73;;;1.60;;
39970;SDS011;35425;51.142;17.178;2023-04-07T07:22:34;1.85;;;1.70;;
39970;SDS011;35425;51.142;17.178;2023-04-07T07:25:01;2.00;;;1.73;;
39970;SDS011;35425;51.142;17.178;2023-04-07T07:27:29;1.90;;;1.70;;
39970;SDS011;35425;51.142;17.178;2023-04-07T07:29:55;1.25;;;1.15;;
39970;SDS011;35425;51.142;17.178;2023-04-07T07:32:22;2.08;;;1.88;;
39970;SDS011;35425;51.142;17.178;2023-04-07T07:34:49;1.80;;;1.70;;
39970;SDS011;35425;51.142;17.178;2023-04-07T07:37:16;1.50;;;1.40;;
39970;SDS011;35425;51.142;17.178;2023-04-07T07:39:43;1.88;;;1.77;;
39970;SDS011;35425;51.142;17.178;2023-04-07T07:42:10;1.65;;;1.50;;
39970;SDS011;35425;51.142;17.178;2023-04-07T07:44:37;2.08;;;1.65;;
39970;SDS011;35425;51.142;17.178;2023-04-07T07:47:03;1.83;;;1.50;;
39970;SDS011;35425;51.142;17.178;2023-04-07T07:49:31;1.60;;;1.38;;
39970;SDS011;35425;51.142;17.178;2023-04-07T07:51:57;1.77;;;1.67;;
39970;SDS011;35425;51.142;17.178;2023-04-07T07:54:25;1.58;;;1.48;;
39970;SDS011;35425;51.142;17.178;2023-04-07T07:56:51;1.55;;;1.45;;
39970;SDS011;35425;51.142;17.178;2023-04-07T07:59:18;1.77;;;1.45;;
39970;SDS011;35425;51.142;17.178;2023-04-07T08:01:45;1.70;;;1.60;;
39970;SDS011;35425;51.142;17.178;2023-04-07T08:04:12;1.85;;;1.58;;
39970;SDS011;35425;51.142;17.178;2023-04-07T08:06:39;1.98;;;1.63;;
39970;SDS011;35425;51.142;17.178;2023-04-07T08:09:06;1.98;;;1.50;;
39970;SDS011;35425;51.142;17.178;2023-04-07T08:11:33;1.92;;;1.73;;
39970;SDS011;35425;51.142;17.178;2023-04-07T08:14:00;2.22;;;1.67;;
39970;SDS011;35425;51.142;17.178;2023-04-07T08:16:26;1.75;;;1.65;;
39970;SDS011;35425;51.142;17.178;2023-04-07T08:18:53;1.60;;;1.50;;
39970;SDS011;35425;51.142;17.178;2023-04-07T08:21:20;1.67;;;1.38;;
39970;SDS011;35425;51.142;17.178;2023-04-07T08:23:47;3.00;;;1.70;;
39970;SDS011;35425;51.142;17.178;2023-04-07T08:26:14;2.10;;;1.90;;
39970;SDS011;35425;51.142;17.178;2023-04-07T08:28:41;2.17;;;1.77;;
39970;SDS011;35425;51.142;17.178;2023-04-07T08:31:07;1.55;;;1.45;;
39970;SDS011;35425;51.142;17.178;2023-04-07T08:33:37;1.10;;;1.00;;
39970;SDS011;35425;51.142;17.178;2023-04-07T08:36:06;2.00;;;1.80;;
39970;SDS011;35425;51.142;17.178;2023-04-07T08:38:33;1.33;;;1.20;;
39970;SDS011;35425;51.142;17.178;2023-04-07T08:41:05;2.00;;;1.50;;
39970;SDS011;35425;51.142;17.178;2023-04-07T08:43:34;1.92;;;1.60;;
39970;SDS011;35425;51.142;17.178;2023-04-07T08:46:01;1.30;;;1.20;;
39970;SDS011;35425;51.142;17.178;2023-04-07T08:48:29;1.45;;;1.35;;
39970;SDS011;35425;51.142;17.178;2023-04-07T08:51:03;1.70;;;1.60;;
39970;SDS011;35425;51.142;17.178;2023-04-07T08:53:51;1.70;;;1.60;;
39970;SDS011;35425;51.142;17.178;2023-04-07T08:56:17;1.55;;;1.45;;
39970;SDS011;35425;51.142;17.178;2023-04-07T08:58:45;1.50;;;1.40;;
39970;SDS011;35425;51.142;17.178;2023-04-07T09:01:12;1.70;;;1.45;;
39970;SDS011;35425;51.142;17.178;2023-04-07T09:03:41;1.67;;;1.40;;
39970;SDS011;35425;51.142;17.178;2023-04-07T09:06:08;2.33;;;1.88;;
39970;SDS011;35425;51.142;17.178;2023-04-07T09:08:36;2.22;;;2.03;;
39970;SDS011;35425;51.142;17.178;2023-04-07T09:11:03;1.60;;;1.40;;
39970;SDS011;35425;51.142;17.178;2023-04-07T09:13:29;2.05;;;1.48;;
39970;SDS011;35425;51.142;17.178;2023-04-07T09:15:58;1.67;;;1.58;;
39970;SDS011;35425;51.142;17.178;2023-04-07T09:18:27;1.98;;;1.50;;
39970;SDS011;35425;51.142;17.178;2023-04-07T09:21:00;1.40;;;1.30;;
39970;SDS011;35425;51.142;17.178;2023-04-07T09:25:55;1.30;;;1.20;;
39970;SDS011;35425;51.142;17.178;2023-04-07T09:28:21;1.50;;;1.38;;
39970;SDS011;35425;51.142;17.178;2023-04-07T09:30:52;1.38;;;1.27;;
39970;SDS011;35425;51.142;17.178;2023-04-07T09:33:26;1.48;;;1.38;;
39970;SDS011;35425;51.142;17.178;2023-04-07T09:35:53;1.30;;;1.20;;
39970;SDS011;35425;51.142;17.178;2023-04-07T09:38:20;2.10;;;1.50;;
39970;SDS011;35425;51.142;17.178;2023-04-07T09:40:47;1.52;;;1.42;;
39970;SDS011;35425;51.142;17.178;2023-04-07T09:43:15;1.95;;;1.60;;
39970;SDS011;35425;51.142;17.178;2023-04-07T09:45:51;1.58;;;1.40;;
39970;SDS011;35425;51.142;17.178;2023-04-07T09:48:19;1.50;;;1.40;;
39970;SDS011;35425;51.142;17.178;2023-04-07T09:50:47;2.25;;;1.80;;
39970;SDS011;35425;51.142;17.178;2023-04-07T09:53:17;1.60;;;1.50;;
39970;SDS011;35425;51.142;17.178;2023-04-07T09:55:48;1.58;;;1.35;;
39970;SDS011;35425;51.142;17.178;2023-04-07T09:58:15;1.52;;;1.40;;
39970;SDS011;35425;51.142;17.178;2023-04-07T10:00:42;1.58;;;1.38;;
39970;SDS011;35425;51.142;17.178;2023-04-07T10:03:08;1.77;;;1.58;;
39970;SDS011;35425;51.142;17.178;2023-04-07T10:05:36;1.63;;;1.52;;
39970;SDS011;35425;51.142;17.178;2023-04-07T10:08:04;2.00;;;1.80;;
39970;SDS011;35425;51.142;17.178;2023-04-07T10:10:31;2.05;;;1.77;;
39970;SDS011;35425;51.142;17.178;2023-04-07T10:12:58;1.80;;;1.70;;
39970;SDS011;35425;51.142;17.178;2023-04-07T10:15:25;1.67;;;1.55;;
39970;SDS011;35425;51.142;17.178;2023-04-07T10:17:52;2.30;;;1.70;;
39970;SDS011;35425;51.142;17.178;2023-04-07T10:20:22;1.75;;;1.50;;
39970;SDS011;35425;51.142;17.178;2023-04-07T10:22:50;1.90;;;1.58;;
39970;SDS011;35425;51.142;17.178;2023-04-07T10:25:20;1.52;;;1.42;;
39970;SDS011;35425;51.142;17.178;2023-04-07T10:27:50;1.90;;;1.80;;
39970;SDS011;35425;51.142;17.178;2023-04-07T10:30:31;1.92;;;1.60;;
39970;SDS011;35425;51.142;17.178;2023-04-07T10:33:09;1.83;;;1.63;;
39970;SDS011;35425;51.142;17.178;2023-04-07T10:38:26;1.67;;;1.50;;
39970;SDS011;35425;51.142;17.178;2023-04-07T10:40:54;2.28;;;1.60;;
39970;SDS011;35425;51.142;17.178;2023-04-07T10:43:39;1.40;;;1.30;;
39970;SDS011;35425;51.142;17.178;2023-04-07T10:46:07;2.13;;;1.80;;
39970;SDS011;35425;51.142;17.178;2023-04-07T10:48:34;1.70;;;1.60;;
39970;SDS011;35425;51.142;17.178;2023-04-07T10:51:12;1.98;;;1.70;;
39970;SDS011;35425;51.142;17.178;2023-04-07T10:54:25;2.85;;;1.65;;
39970;SDS011;35425;51.142;17.178;2023-04-07T10:59:18;2.20;;;1.67;;
39970;SDS011;35425;51.142;17.178;2023-04-07T11:02:39;1.58;;;1.40;;
39970;SDS011;35425;51.142;17.178;2023-04-07T11:04:41;1.75;;;1.50;;
39970;SDS011;35425;51.142;17.178;2023-04-07T11:07:09;2.17;;;1.77;;
39970;SDS011;35425;51.142;17.178;2023-04-07T11:09:36;1.90;;;1.70;;
39970;SDS011;35425;51.142;17.178;2023-04-07T11:12:03;1.65;;;1.48;;
39970;SDS011;35425;51.142;17.178;2023-04-07T11:14:32;2.08;;;1.88;;
39970;SDS011;35425;51.142;17.178;2023-04-07T11:16:59;2.00;;;1.80;;
39970;SDS011;35425;51.142;17.178;2023-04-07T11:19:29;2.10;;;1.65;;
39970;SDS011;35425;51.142;17.178;2023-04-07T11:22:13;2.15;;;1.67;;
39970;SDS011;35425;51.142;17.178;2023-04-07T11:24:55;2.08;;;1.70;;
39970;SDS011;35425;51.142;17.178;2023-04-07T11:27:23;1.85;;;1.60;;
39970;SDS011;35425;51.142;17.178;2023-04-07T11:29:50;2.03;;;1.80;;
39970;SDS011;35425;51.142;17.178;2023-04-07T11:32:21;2.15;;;1.95;;
39970;SDS011;35425;51.142;17.178;2023-04-07T11:34:50;2.67;;;1.70;;
39970;SDS011;35425;51.142;17.178;2023-04-07T11:39:50;2.17;;;1.95;;
39970;SDS011;35425;51.142;17.178;2023-04-07T11:42:30;1.52;;;1.42;;
39970;SDS011;35425;51.142;17.178;2023-04-07T11:44:57;2.92;;;2.10;;
39970;SDS011;35425;51.142;17.178;2023-04-07T11:47:37;1.98;;;1.77;;
39970;SDS011;35425;51.142;17.178;2023-04-07T11:50:04;2.50;;;1.90;;
39970;SDS011;35425;51.142;17.178;2023-04-07T11:52:47;1.50;;;1.40;;
39970;SDS011;35425;51.142;17.178;2023-04-07T11:57:47;1.95;;;1.73;;
39970;SDS011;35425;51.142;17.178;2023-04-07T12:00:14;1.88;;;1.73;;
39970;SDS011;35425;51.142;17.178;2023-04-07T12:02:41;1.52;;;1.42;;
39970;SDS011;35425;51.142;17.178;2023-04-07T12:05:08;2.00;;;1.67;;
39970;SDS011;35425;51.142;17.178;2023-04-07T12:07:36;2.65;;;2.08;;
39970;SDS011;35425;51.142;17.178;2023-04-07T12:12:46;2.28;;;1.67;;
39970;SDS011;35425;51.142;17.178;2023-04-07T12:15:14;1.83;;;1.55;;
39970;SDS011;35425;51.142;17.178;2023-04-07T12:17:46;1.67;;;1.55;;
39970;SDS011;35425;51.142;17.178;2023-04-07T12:20:13;2.50;;;2.00;;
39970;SDS011;35425;51.142;17.178;2023-04-07T12:22:41;2.15;;;1.95;;
39970;SDS011;35425;51.142;17.178;2023-04-07T12:25:07;2.28;;;1.80;;
39970;SDS011;35425;51.142;17.178;2023-04-07T12:27:34;2.13;;;1.92;;
39970;SDS011;35425;51.142;17.178;2023-04-07T12:30:08;2.05;;;1.85;;
39970;SDS011;35425;51.142;17.178;2023-04-07T12:32:35;1.88;;;1.77;;
39970;SDS011;35425;51.142;17.178;2023-04-07T12:35:04;2.15;;;1.83;;
39970;SDS011;35425;51.142;17.178;2023-04-07T12:37:31;2.00;;;1.80;;
39970;SDS011;35425;51.142;17.178;2023-04-07T12:39:58;1.98;;;1.70;;
39970;SDS011;35425;51.142;17.178;2023-04-07T12:42:26;1.95;;;1.77;;
39970;SDS011;35425;51.142;17.178;2023-04-07T12:44:52;2.38;;;1.83;;
39970;SDS011;35425;51.142;17.178;2023-04-07T12:47:19;2.05;;;1.85;;
39970;SDS011;35425;51.142;17.178;2023-04-07T12:49:46;1.98;;;1.65;;
39970;SDS011;35425;51.142;17.178;2023-04-07T12:52:15;3.00;;;2.10;;
39970;SDS011;35425;51.142;17.178;2023-04-07T12:54:42;1.90;;;1.65;;
39970;SDS011;35425;51.142;17.178;2023-04-07T12:57:10;3.03;;;2.20;;
39970;SDS011;35425;51.142;17.178;2023-04-07T12:59:38;2.60;;;2.00;;
39970;SDS011;35425;51.142;17.178;2023-04-07T13:02:05;2.28;;;2.08;;
39970;SDS011;35425;51.142;17.178;2023-04-07T13:04:33;2.05;;;1.85;;
39970;SDS011;35425;51.142;17.178;2023-04-07T13:07:03;2.50;;;2.17;;
39970;SDS011;35425;51.142;17.178;2023-04-07T13:09:30;2.67;;;2.33;;
39970;SDS011;35425;51.142;17.178;2023-04-07T13:11:57;2.03;;;1.83;;
39970;SDS011;35425;51.142;17.178;2023-04-07T13:14:24;2.30;;;2.10;;
39970;SDS011;35425;51.142;17.178;2023-04-07T13:16:51;2.10;;;1.90;;
39970;SDS011;35425;51.142;17.178;2023-04-07T13:19:18;2.15;;;1.95;;
39970;SDS011;35425;51.142;17.178;2023-04-07T13:21:45;2.40;;;2.20;;
39970;SDS011;35425;51.142;17.178;2023-04-07T13:24:13;2.40;;;2.10;;
39970;SDS011;35425;51.142;17.178;2023-04-07T13:26:40;2.28;;;2.05;;
39970;SDS011;35425;51.142;17.178;2023-04-07T13:29:07;2.67;;;2.10;;
39970;SDS011;35425;51.142;17.178;2023-04-07T13:31:34;2.85;;;2.15;;
39970;SDS011;35425;51.142;17.178;2023-04-07T13:34:01;2.10;;;1.98;;
39970;SDS011;35425;51.142;17.178;2023-04-07T13:36:27;2.25;;;2.00;;
39970;SDS011;35425;51.142;17.178;2023-04-07T13:38:55;2.10;;;1.83;;
39970;SDS011;35425;51.142;17.178;2023-04-07T13:41:22;1.95;;;1.80;;
39970;SDS011;35425;51.142;17.178;2023-04-07T13:43:49;2.22;;;2.03;;
39970;SDS011;35425;51.142;17.178;2023-04-07T13:46:16;2.40;;;2.15;;
39970;SDS011;35425;51.142;17.178;2023-04-07T13:48:53;2.40;;;2.20;;
39970;SDS011;35425;51.142;17.178;2023-04-07T13:51:20;2.50;;;2.30;;
39970;SDS011;35425;51.142;17.178;2023-04-07T13:53:47;2.30;;;2.10;;
39970;SDS011;35425;51.142;17.178;2023-04-07T13:56:14;2.58;;;2.38;;
39970;SDS011;35425;51.142;17.178;2023-04-07T13:58:41;2.75;;;2.55;;
39970;SDS011;35425;51.142;17.178;2023-04-07T14:01:08;2.63;;;2.42;;
39970;SDS011;35425;51.142;17.178;2023-04-07T14:03:35;2.40;;;2.20;;
39970;SDS011;35425;51.142;17.178;2023-04-07T14:06:01;2.38;;;2.17;;
39970;SDS011;35425;51.142;17.178;2023-04-07T14:08:28;2.58;;;2.38;;
39970;SDS011;35425;51.142;17.178;2023-04-07T14:10:55;2.47;;;2.25;;
39970;SDS011;35425;51.142;17.178;2023-04-07T14:13:22;4.10;;;2.40;;
39970;SDS011;35425;51.142;17.178;2023-04-07T14:15:49;2.28;;;2.08;;
39970;SDS011;35425;51.142;17.178;2023-04-07T14:18:15;2.22;;;2.00;;
39970;SDS011;35425;51.142;17.178;2023-04-07T14:20:42;2.90;;;2.60;;
39970;SDS011;35425;51.142;17.178;2023-04-07T14:23:09;2.45;;;2.25;;
39970;SDS011;35425;51.142;17.178;2023-04-07T14:25:39;1.80;;;1.70;;
39970;SDS011;35425;51.142;17.178;2023-04-07T14:28:06;3.20;;;2.22;;
39970;SDS011;35425;51.142;17.178;2023-04-07T14:30:36;2.28;;;2.08;;
39970;SDS011;35425;51.142;17.178;2023-04-07T14:33:06;2.97;;;2.40;;
39970;SDS011;35425;51.142;17.178;2023-04-07T14:35:35;2.42;;;2.22;;
39970;SDS011;35425;51.142;17.178;2023-04-07T14:38:02;2.20;;;2.00;;
39970;SDS011;35425;51.142;17.178;2023-04-07T14:40:29;1.95;;;1.85;;
39970;SDS011;35425;51.142;17.178;2023-04-07T14:42:56;2.28;;;2.08;;
39970;SDS011;35425;51.142;17.178;2023-04-07T14:45:27;2.70;;;2.00;;
39970;SDS011;35425;51.142;17.178;2023-04-07T14:47:54;2.88;;;2.03;;
39970;SDS011;35425;51.142;17.178;2023-04-07T14:50:21;1.80;;;1.65;;
39970;SDS011;35425;51.142;17.178;2023-04-07T14:52:55;1.95;;;1.73;;
39970;SDS011;35425;51.142;17.178;2023-04-07T14:55:21;2.40;;;1.73;;
39970;SDS011;35425;51.142;17.178;2023-04-07T14:57:48;1.70;;;1.60;;